createdAt,value
2022-11-14T00:01:38.695Z,6.50
2022-11-14T00:07:01.976Z,7.63
2022-11-14T00:12:23.827Z,7.23
2022-11-14T00:17:45.457Z,6.93
2022-11-14T00:23:08.707Z,7.03
2022-11-14T00:28:30.806Z,7.30
2022-11-14T00:33:54.591Z,7.03
2022-11-14T00:39:17.809Z,6.93
2022-11-14T00:44:39.536Z,6.95
2022-11-14T00:50:01.349Z,6.90
2022-11-14T00:55:24.973Z,6.87
2022-11-14T01:00:47.020Z,7.40
2022-11-14T01:06:13.879Z,7.13
2022-11-14T01:11:36.844Z,6.72
2022-11-14T01:16:58.367Z,6.67
2022-11-14T01:22:19.938Z,6.82
2022-11-14T01:27:43.359Z,7.03
2022-11-14T01:33:05.581Z,6.87
2022-11-14T01:38:27.702Z,6.97
2022-11-14T01:43:51.203Z,6.93
2022-11-14T01:49:18.206Z,6.80
2022-11-14T01:54:42.964Z,7.53
2022-11-14T02:00:10.402Z,6.73
2022-11-14T02:05:32.884Z,6.57
2022-11-14T02:10:54.739Z,7.22
2022-11-14T02:16:17.995Z,6.77
2022-11-14T02:21:41.188Z,6.77
2022-11-14T02:27:03.672Z,6.72
2022-11-14T02:32:25.234Z,6.25
2022-11-14T02:37:48.483Z,6.97
2022-11-14T02:43:10.756Z,7.00
2022-11-14T02:48:32.688Z,6.50
2022-11-14T02:53:56.398Z,6.90
2022-11-14T02:59:18.404Z,6.70
2022-11-14T03:04:40.185Z,7.60
2022-11-14T03:10:03.493Z,7.18
2022-11-14T03:15:26.267Z,7.40
2022-11-14T03:20:48.183Z,7.35
2022-11-14T03:26:13.109Z,7.33
2022-11-14T03:31:34.944Z,8.17
2022-11-14T03:36:56.908Z,7.95
2022-11-14T03:42:20.158Z,7.65
2022-11-14T03:47:42.160Z,7.68
2022-11-14T03:53:03.964Z,9.10
2022-11-14T03:58:27.508Z,8.70
2022-11-14T04:03:49.985Z,8.63
2022-11-14T04:09:12.222Z,8.38
2022-11-14T04:14:35.430Z,8.03
2022-11-14T04:19:57.321Z,7.57
2022-11-14T04:25:19.111Z,7.90
2022-11-14T04:30:42.706Z,8.00
2022-11-14T04:36:04.745Z,9.33
2022-11-14T04:41:26.719Z,9.30
2022-11-14T04:46:49.988Z,8.35
2022-11-14T04:52:11.599Z,8.63
2022-11-14T04:57:33.537Z,8.45
2022-11-14T05:02:56.679Z,9.20
2022-11-14T05:08:18.322Z,8.40
2022-11-14T05:13:40.300Z,8.40
2022-11-14T05:19:03.550Z,8.20
2022-11-14T05:24:26.169Z,9.77
2022-11-14T05:29:48.109Z,9.73
2022-11-14T05:35:11.404Z,9.43
2022-11-14T05:40:33.358Z,8.98
2022-11-14T05:45:54.906Z,10.05
2022-11-14T05:51:18.105Z,10.00
2022-11-14T05:56:40.065Z,9.25
2022-11-14T06:02:02.051Z,10.65
2022-11-14T06:07:26.339Z,11.32
2022-11-14T06:12:49.353Z,11.40
2022-11-14T06:18:11.363Z,11.82
2022-11-14T06:23:34.517Z,9.77
2022-11-14T06:28:56.380Z,10.20
2022-11-14T06:34:18.322Z,9.97
2022-11-14T06:39:41.214Z,10.40
2022-11-14T06:45:02.879Z,9.30
2022-11-14T06:50:24.477Z,12.30
2022-11-14T06:55:55.972Z,12.95
2022-11-14T07:01:19.258Z,11.27
2022-11-14T07:06:41.174Z,11.27
2022-11-14T07:12:04.299Z,11.10
2022-11-14T07:17:30.911Z,11.85
2022-11-14T07:22:53.553Z,13.60
2022-11-14T07:28:16.512Z,16.15
2022-11-14T07:33:38.299Z,16.00
2022-11-14T07:39:00.331Z,9.20
2022-11-14T07:44:23.785Z,8.30
2022-11-14T07:49:45.861Z,7.40
2022-11-14T07:55:08.540Z,5.90
2022-11-14T08:00:31.836Z,5.47
2022-11-14T08:05:53.418Z,6.43
2022-11-14T08:11:34.350Z,5.80
2022-11-14T08:16:58.224Z,5.70
2022-11-14T08:22:19.832Z,6.10
2022-11-14T08:27:41.466Z,6.32
2022-11-14T08:33:05.497Z,7.25
2022-11-14T08:38:27.484Z,6.60
2022-11-14T08:43:49.373Z,7.88
2022-11-14T08:49:12.477Z,7.97
2022-11-14T08:54:34.425Z,7.70
2022-11-14T08:59:56.624Z,8.60
2022-11-14T09:05:19.864Z,9.07
2022-11-14T09:10:41.502Z,7.70
2022-11-14T09:16:03.469Z,7.57
2022-11-14T09:21:26.645Z,7.43
2022-11-14T09:26:54.939Z,7.95
2022-11-14T09:32:18.516Z,7.60
2022-11-14T09:37:42.294Z,6.28
2022-11-14T09:43:18.428Z,7.70
2022-11-14T09:48:40.145Z,7.15
2022-11-14T09:54:12.490Z,6.50
2022-11-14T09:59:34.225Z,6.68
2022-11-14T10:05:10.437Z,5.35
2022-11-14T10:10:49.297Z,4.65
2022-11-14T10:16:18.381Z,4.83
2022-11-14T10:21:58.216Z,4.55
2022-11-14T10:27:27.005Z,4.70
2022-11-14T10:33:03.901Z,4.90
2022-11-14T10:38:32.861Z,4.50
2022-11-14T10:43:57.105Z,4.63
2022-11-14T10:49:22.230Z,4.50
2022-11-14T10:54:48.676Z,4.47
2022-11-14T11:00:16.176Z,4.13
2022-11-14T11:05:49.023Z,3.28
2022-11-14T11:11:32.511Z,3.80
2022-11-14T11:22:36.408Z,4.43
2022-11-14T11:28:12.573Z,3.90
2022-11-14T11:33:35.434Z,4.50
2022-11-14T11:38:58.320Z,4.57
2022-11-14T11:44:21.124Z,3.72
2022-11-14T11:49:52.942Z,4.10
2022-11-14T11:55:21.864Z,4.30
2022-11-14T12:00:43.665Z,4.27
2022-11-14T12:06:15.614Z,3.90
2022-11-14T12:11:43.345Z,4.15
2022-11-14T12:17:51.003Z,4.60
2022-11-14T12:23:28.112Z,4.07
2022-11-14T12:29:13.147Z,4.40
2022-11-14T12:34:38.664Z,4.30
2022-11-14T12:40:06.757Z,4.90
2022-11-14T12:46:02.307Z,4.25
2022-11-14T12:51:52.473Z,4.40
2022-11-14T12:57:44.848Z,4.70
2022-11-14T13:03:38.478Z,3.87
2022-11-14T13:09:32.338Z,4.50
2022-11-14T13:15:14.491Z,4.68
2022-11-14T13:20:55.722Z,4.82
2022-11-14T13:26:53.979Z,5.32
2022-11-14T13:33:06.656Z,5.75
2022-11-14T13:39:05.678Z,6.88
2022-11-14T13:44:59.458Z,6.47
2022-11-14T13:50:27.139Z,6.03
2022-11-14T13:55:57.786Z,6.30
2022-11-14T14:01:35.392Z,6.30
2022-11-14T14:07:09.016Z,8.43
2022-11-14T14:12:51.562Z,6.07
2022-11-14T14:18:24.918Z,5.35
2022-11-14T14:23:54.217Z,5.60
2022-11-14T14:29:24.305Z,6.00
2022-11-14T14:34:46.115Z,5.40
2022-11-14T14:40:23.229Z,5.30
2022-11-14T14:45:52.082Z,6.00
2022-11-14T14:51:15.750Z,5.50
2022-11-14T14:56:37.494Z,6.00
2022-11-14T15:02:00.524Z,6.85
2022-11-14T15:07:24.551Z,8.20
2022-11-14T15:12:46.564Z,9.10
2022-11-14T15:18:20.116Z,8.37
2022-11-14T15:23:42.229Z,8.40
2022-11-14T15:29:09.242Z,9.10
2022-11-14T15:34:34.110Z,10.52
2022-11-14T15:40:18.189Z,9.57
2022-11-14T15:45:41.451Z,9.60
2022-11-14T15:51:04.471Z,9.50
2022-11-14T15:56:26.364Z,11.02
2022-11-14T16:01:51.564Z,11.57
2022-11-14T16:07:16.939Z,10.97
2022-11-14T16:12:38.605Z,10.43
2022-11-14T16:18:00.409Z,10.73
2022-11-14T16:23:23.762Z,12.27
2022-11-14T16:28:45.442Z,11.00
2022-11-14T16:34:07.685Z,10.93
2022-11-14T16:39:31.420Z,8.70
2022-11-14T16:44:53.026Z,8.98
2022-11-14T16:50:15.125Z,9.65
2022-11-14T16:55:38.194Z,9.73
2022-11-14T17:00:59.833Z,8.77
2022-11-14T17:06:21.838Z,8.70
2022-11-14T17:11:45.616Z,8.10
2022-11-14T17:17:07.495Z,8.73
2022-11-14T17:22:29.782Z,9.52
2022-11-14T17:27:53.074Z,7.82
2022-11-14T17:33:14.948Z,8.05
2022-11-14T17:38:37.953Z,9.13
2022-11-14T17:44:02.661Z,8.00
2022-11-14T17:49:24.841Z,9.60
2022-11-14T17:54:47.022Z,10.38
2022-11-14T18:00:11.388Z,12.20
2022-11-14T18:05:33.204Z,13.32
2022-11-14T18:10:55.181Z,12.98
2022-11-14T18:16:20.644Z,14.88
2022-11-14T18:21:43.328Z,13.10
2022-11-14T18:27:05.412Z,14.35
2022-11-14T18:32:28.883Z,12.75
2022-11-14T18:37:50.862Z,14.82
2022-11-14T18:43:12.716Z,14.95
2022-11-14T18:48:36.756Z,17.60
2022-11-14T18:53:59.481Z,20.25
2022-11-14T18:59:20.901Z,23.40
2022-11-14T19:04:43.960Z,24.77
2022-11-14T19:10:06.508Z,25.40
2022-11-14T19:15:28.061Z,25.10
2022-11-14T19:20:59.051Z,22.90
2022-11-14T19:26:21.246Z,26.67
2022-11-14T19:31:43.692Z,29.13
2022-11-14T19:37:06.625Z,19.83
2022-11-14T19:42:28.120Z,13.73
2022-11-14T19:47:49.769Z,11.30
2022-11-14T19:53:13.231Z,18.55
2022-11-14T19:58:37.115Z,19.85
2022-11-14T20:04:00.529Z,18.37
2022-11-14T20:09:23.387Z,14.00
2022-11-14T20:14:45.210Z,12.80
2022-11-14T20:20:08.561Z,14.65
2022-11-14T20:25:31.841Z,16.10
2022-11-14T20:30:53.702Z,19.00
2022-11-14T20:36:17.380Z,14.93
2022-11-14T20:41:40.261Z,13.93
2022-11-14T20:47:04.117Z,15.55
2022-11-14T20:52:27.940Z,14.80
2022-11-14T20:57:50.880Z,16.50
2022-11-14T21:03:12.858Z,23.88
2022-11-14T21:08:36.414Z,21.63
2022-11-14T21:13:59.864Z,19.02
2022-11-14T21:19:21.416Z,18.40
2022-11-14T21:24:43.469Z,20.08
2022-11-14T21:30:07.626Z,19.47
2022-11-14T21:35:32.553Z,23.35
2022-11-14T21:40:54.868Z,25.33
2022-11-14T21:46:18.171Z,28.60
2022-11-14T21:51:40.003Z,27.35
2022-11-14T21:57:06.932Z,26.50
2022-11-14T22:02:50.341Z,23.20
2022-11-14T22:08:12.366Z,22.30
2022-11-14T22:13:34.383Z,21.50
2022-11-14T22:19:04.749Z,19.42
2022-11-14T22:24:27.567Z,20.80
2022-11-14T22:29:49.670Z,21.27
2022-11-14T22:35:13.549Z,24.63
2022-11-14T22:40:35.704Z,20.53
2022-11-14T22:45:57.981Z,17.10
2022-11-14T22:51:22.834Z,17.13
2022-11-14T22:56:44.408Z,18.50
2022-11-14T23:02:06.290Z,18.20
2022-11-14T23:07:29.607Z,17.55
2022-11-14T23:12:51.735Z,15.17
2022-11-14T23:18:13.597Z,14.18
2022-11-14T23:23:36.958Z,14.02
2022-11-14T23:28:58.958Z,15.20
2022-11-14T23:34:20.785Z,14.18
2022-11-14T23:39:43.888Z,13.67
2022-11-14T23:45:06.360Z,14.80
2022-11-14T23:50:28.098Z,16.23
2022-11-14T23:55:54.639Z,15.40
